Time;durP1;ratioP1;P1;durP2;ratioP2;P2;SDS_P1;SDS_P2;PMS_P1;PMS_P2;Temp;Humidity;BMP_temperature;BMP_pressure;BME280_temperature;BME280_humidity;BME280_pressure;Samples;Min_cycle;Max_cycle;Signal;HPM_P1;HPM_P2
2023/04/06 00:00:36;;;;;;;15.50;10.50;;;;;;;-0.37;100.00;100350.48;109733;1242;60687;-71
2023/04/06 00:03:16;;;;;;;14.60;10.10;;;;;;;-0.42;100.00;100357.83;109742;1243;72251;-72
2023/04/06 00:05:48;;;;;;;13.30;8.70;;;;;;;-0.38;100.00;100340.77;109572;1241;71084;-71
2023/04/06 00:08:16;;;;;;;16.00;10.70;;;;;;;-0.41;100.00;100335.23;109490;1244;69692;-71
2023/04/06 00:10:45;;;;;;;9.70;7.40;;;;;;;-0.41;100.00;100331.27;109707;1241;72365;-71
2023/04/06 00:13:14;;;;;;;9.40;6.80;;;;;;;-0.36;100.00;100334.20;109666;1241;59636;-71
2023/04/06 00:15:43;;;;;;;9.20;7.70;;;;;;;-0.42;100.00;100335.27;109737;1241;58859;-71
2023/04/06 00:18:12;;;;;;;8.30;5.90;;;;;;;-0.37;100.00;100313.51;109728;1241;72622;-72
2023/04/06 00:20:41;;;;;;;11.80;8.20;;;;;;;-0.38;100.00;100312.70;109772;1241;71178;-72
2023/04/06 00:23:10;;;;;;;16.60;11.80;;;;;;;-0.35;100.00;100312.44;109746;1241;69607;-71
2023/04/06 00:25:39;;;;;;;14.20;9.60;;;;;;;-0.42;100.00;100312.65;109756;1241;73362;-72
2023/04/06 00:28:08;;;;;;;11.00;8.80;;;;;;;-0.38;100.00;100315.41;109653;1244;62442;-72
2023/04/06 00:30:36;;;;;;;12.20;7.90;;;;;;;-0.33;100.00;100302.09;109551;1241;62141;-72
2023/04/06 00:33:05;;;;;;;10.40;7.20;;;;;;;-0.32;100.00;100307.36;109756;1241;72169;-71
2023/04/06 00:35:34;;;;;;;14.00;9.00;;;;;;;-0.36;100.00;100297.58;109765;1241;69408;-71
2023/04/06 00:38:03;;;;;;;11.20;8.50;;;;;;;-0.34;100.00;100294.44;109544;1241;70477;-72
2023/04/06 00:40:34;;;;;;;13.00;9.50;;;;;;;-0.36;100.00;100292.27;109694;1241;72495;-71
2023/04/06 00:43:03;;;;;;;10.80;7.20;;;;;;;-0.40;100.00;100289.16;109647;1245;59719;-71
2023/04/06 00:45:33;;;;;;;13.10;9.00;;;;;;;-0.38;100.00;100298.65;109767;1241;59581;-71
2023/04/06 00:48:02;;;;;;;11.40;7.00;;;;;;;-0.38;100.00;100284.62;109686;1241;73394;-71
2023/04/06 00:50:31;;;;;;;12.80;8.40;;;;;;;-0.34;100.00;100281.42;109655;1241;72884;-70
2023/04/06 00:53:01;;;;;;;12.00;8.70;;;;;;;-0.39;100.00;100275.94;109462;1241;68929;-70
2023/04/06 00:55:30;;;;;;;9.50;7.20;;;;;;;-0.40;100.00;100276.32;109692;1245;73714;-71
2023/04/06 00:58:03;;;;;;;10.80;7.90;;;;;;;-0.41;100.00;100294.48;109547;1241;60987;-70
2023/04/06 01:00:36;;;;;;;8.90;7.80;;;;;;;-0.36;100.00;100271.92;109672;1241;58598;-70
2023/04/06 01:03:06;;;;;;;8.50;6.90;;;;;;;-0.37;100.00;100262.88;109689;1241;71582;-69
2023/04/06 01:05:40;;;;;;;12.90;8.90;;;;;;;-0.40;100.00;100268.30;109627;1241;71427;-69
2023/04/06 01:08:15;;;;;;;14.50;9.20;;;;;;;-0.42;100.00;100256.73;109523;1241;69068;-69
2023/04/06 01:10:44;;;;;;;13.10;8.60;;;;;;;-0.46;100.00;100259.95;109683;1245;71388;-70
2023/04/06 01:13:24;;;;;;;17.20;10.70;;;;;;;-0.46;100.00;100258.93;109606;1245;60477;-70
2023/04/06 01:16:05;;;;;;;10.70;7.50;;;;;;;-0.42;100.00;100251.25;109632;1241;59559;-69
2023/04/06 01:18:46;;;;;;;11.30;8.40;;;;;;;-0.47;100.00;100255.71;109518;1242;70798;-69
2023/04/06 01:21:25;;;;;;;12.30;8.70;;;;;;;-0.43;100.00;100246.67;109538;1244;71940;-69
2023/04/06 01:24:19;;;;;;;9.20;6.90;;;;;;;-0.41;100.00;100241.10;109453;1241;70465;-70
2023/04/06 01:27:13;;;;;;;10.90;7.40;;;;;;;-0.45;100.00;100239.38;109421;1245;74370;-70
2023/04/06 01:29:52;;;;;;;10.60;7.70;;;;;;;-0.41;100.00;100231.38;109496;1245;62453;-70
2023/04/06 01:32:33;;;;;;;15.60;11.00;;;;;;;-0.40;100.00;100231.52;109537;1244;58816;-69
2023/04/06 01:35:01;;;;;;;13.70;9.90;;;;;;;-0.36;100.00;100238.03;109336;1241;73416;-69
2023/04/06 01:37:32;;;;;;;14.50;10.10;;;;;;;-0.45;100.00;100230.83;109438;1241;72687;-69
2023/04/06 01:40:03;;;;;;;15.20;10.20;;;;;;;-0.41;100.00;100227.93;109362;1241;68716;-70
2023/04/06 01:42:42;;;;;;;13.10;8.60;;;;;;;-0.49;100.00;100224.61;109433;1241;73994;-69
2023/04/06 01:45:11;;;;;;;12.10;8.90;;;;;;;-0.41;100.00;100216.99;109292;1247;60309;-69
2023/04/06 01:47:41;;;;;;;11.60;8.40;;;;;;;-0.40;100.00;100213.18;109282;1242;61879;-68
2023/04/06 01:50:11;;;;;;;10.60;7.50;;;;;;;-0.40;100.00;100215.43;109509;1241;73933;-69
2023/04/06 01:52:44;;;;;;;8.40;6.00;;;;;;;-0.42;100.00;100208.46;109460;1244;69927;-70
2023/04/06 01:55:13;;;;;;;12.70;9.10;;;;;;;-0.46;100.00;100207.41;109448;1241;67763;-70
2023/04/06 01:58:32;;;;;;;13.90;9.10;;;;;;;-0.49;100.00;100208.05;109491;1242;73922;-68
2023/04/06 02:01:02;;;;;;;14.10;8.60;;;;;;;-0.48;100.00;100197.39;109456;1244;61262;-68
2023/04/06 02:03:34;;;;;;;12.50;8.70;;;;;;;-0.44;100.00;100197.79;109408;1241;59772;-71
2023/04/06 02:06:07;;;;;;;9.10;6.70;;;;;;;-0.39;100.00;100198.24;109555;1241;70548;-69
2023/04/06 02:08:39;;;;;;;14.60;10.00;;;;;;;-0.38;100.00;100195.85;109341;1241;71440;-69
2023/04/06 02:11:08;;;;;;;14.00;9.10;;;;;;;-0.39;100.00;100193.32;109547;1241;70894;-70
2023/04/06 02:13:47;;;;;;;13.10;8.30;;;;;;;-0.43;100.00;100196.02;109527;1244;74140;-69
2023/04/06 02:16:16;;;;;;;12.90;9.30;;;;;;;-0.44;100.00;100195.89;109536;1245;61763;-71
2023/04/06 02:18:46;;;;;;;13.80;10.10;;;;;;;-0.46;100.00;100187.08;109754;1241;60983;-71
2023/04/06 02:21:19;;;;;;;9.70;7.50;;;;;;;-0.41;100.00;100172.67;109547;1241;73183;-71
2023/04/06 02:23:49;;;;;;;12.20;8.80;;;;;;;-0.42;100.00;100181.27;109462;1241;70870;-70
2023/04/06 02:26:18;;;;;;;14.60;10.90;;;;;;;-0.38;100.00;100177.89;109494;1241;68555;-69
2023/04/06 02:28:48;;;;;;;8.80;7.40;;;;;;;-0.37;100.00;100173.23;109465;1242;73795;-69
2023/04/06 02:31:17;;;;;;;9.10;7.00;;;;;;;-0.39;100.00;100175.85;109685;1244;60097;-69
2023/04/06 02:33:46;;;;;;;14.30;9.50;;;;;;;-0.43;100.00;100176.33;109627;1245;58850;-68
2023/04/06 02:36:15;;;;;;;10.20;7.30;;;;;;;-0.48;100.00;100172.23;109563;1241;70678;-68
2023/04/06 02:38:44;;;;;;;9.30;6.80;;;;;;;-0.44;100.00;100166.60;109497;1245;70200;-69
2023/04/06 02:41:13;;;;;;;11.30;8.80;;;;;;;-0.41;100.00;100176.95;109500;1241;69152;-68
2023/04/06 02:43:42;;;;;;;15.30;9.30;;;;;;;-0.40;100.00;100177.77;109494;1243;74410;-68
2023/04/06 02:46:16;;;;;;;9.10;6.10;;;;;;;-0.41;100.00;100164.98;109611;1245;60369;-68
2023/04/06 02:48:45;;;;;;;11.10;7.70;;;;;;;-0.45;100.00;100175.58;109615;1241;58838;-68
2023/04/06 02:51:14;;;;;;;6.50;5.20;;;;;;;-0.49;100.00;100167.81;109597;1241;73537;-69
2023/04/06 02:53:45;;;;;;;8.80;6.60;;;;;;;-0.47;100.00;100162.98;109597;1242;70883;-69
2023/04/06 02:56:14;;;;;;;10.70;8.10;;;;;;;-0.43;100.00;100172.58;109588;1241;68082;-68
2023/04/06 02:58:47;;;;;;;11.70;7.70;;;;;;;-0.46;100.00;100164.45;109674;1241;71157;-68
2023/04/06 03:01:17;;;;;;;12.60;8.80;;;;;;;-0.47;100.00;100170.69;109520;1245;62078;-68
2023/04/06 03:03:46;;;;;;;10.50;7.60;;;;;;;-0.47;100.00;100170.67;109593;1244;59369;-67
2023/04/06 03:06:20;;;;;;;9.90;7.40;;;;;;;-0.49;100.00;100164.59;109637;1242;72732;-68
2023/04/06 03:08:51;;;;;;;7.90;6.10;;;;;;;-0.52;100.00;100162.30;109595;1241;71855;-68
2023/04/06 03:11:21;;;;;;;12.50;8.40;;;;;;;-0.47;100.00;100163.33;109624;1245;69099;-70
2023/04/06 03:13:51;;;;;;;8.90;6.40;;;;;;;-0.47;100.00;100170.84;109633;1241;73661;-69
2023/04/06 03:16:20;;;;;;;13.30;8.60;;;;;;;-0.52;100.00;100173.75;109609;1241;61634;-69
2023/04/06 03:18:49;;;;;;;9.20;6.70;;;;;;;-0.44;100.00;100161.85;109697;1245;60003;-69
2023/04/06 03:21:19;;;;;;;15.80;10.50;;;;;;;-0.45;100.00;100164.62;109550;1248;71580;-69
2023/04/06 03:23:50;;;;;;;12.10;8.00;;;;;;;-0.44;100.00;100177.39;109641;1241;72229;-69
2023/04/06 03:26:19;;;;;;;13.20;8.60;;;;;;;-0.54;100.00;100167.51;109621;1241;70453;-68
2023/04/06 03:28:48;;;;;;;10.80;8.30;;;;;;;-0.58;100.00;100170.87;109581;1241;71980;-69
2023/04/06 03:31:17;;;;;;;9.20;6.40;;;;;;;-0.51;100.00;100166.20;109675;1244;60034;-68
2023/04/06 03:33:55;;;;;;;15.00;7.20;;;;;;;-0.55;100.00;100162.39;109502;1241;61247;-70
2023/04/06 03:36:27;;;;;;;11.50;8.40;;;;;;;-0.56;100.00;100174.90;109723;1241;74561;-68
2023/04/06 03:38:57;;;;;;;8.80;6.00;;;;;;;-0.54;100.00;100174.35;109575;1241;70412;-68
2023/04/06 03:41:26;;;;;;;8.80;6.10;;;;;;;-0.54;100.00;100173.14;109640;1241;70969;-71
2023/04/06 03:44:00;;;;;;;12.50;8.10;;;;;;;-0.58;100.00;100174.11;109541;1241;71434;-69
2023/04/06 03:46:29;;;;;;;12.80;7.80;;;;;;;-0.59;100.00;100179.47;109750;1244;60456;-70
2023/04/06 03:48:58;;;;;;;21.00;11.80;;;;;;;-0.59;100.00;100182.53;109662;1241;59978;-70
2023/04/06 03:51:28;;;;;;;11.60;6.40;;;;;;;-0.61;100.00;100178.36;109573;1241;70864;-70
2023/04/06 03:53:56;;;;;;;19.70;9.80;;;;;;;-0.63;100.00;100183.39;109538;1241;70995;-70
2023/04/06 03:56:25;;;;;;;19.10;10.70;;;;;;;-0.65;100.00;100187.23;109684;1245;67890;-70
2023/04/06 03:58:55;;;;;;;17.20;9.30;;;;;;;-0.64;100.00;100191.95;109674;1241;73873;-72
2023/04/06 04:01:24;;;;;;;11.90;7.90;;;;;;;-0.67;100.00;100194.98;109659;1245;61629;-70
2023/04/06 04:03:53;;;;;;;10.00;6.10;;;;;;;-0.65;100.00;100197.48;109690;1242;59941;-71
2023/04/06 04:06:22;;;;;;;16.90;10.00;;;;;;;-0.69;100.00;100189.05;109688;1245;71565;-71
2023/04/06 04:08:51;;;;;;;16.50;9.50;;;;;;;-0.67;100.00;100187.95;109613;1245;70224;-70
2023/04/06 04:11:20;;;;;;;18.10;10.20;;;;;;;-0.64;100.00;100185.64;109697;1245;67801;-70
2023/04/06 04:13:51;;;;;;;18.50;10.80;;;;;;;-0.68;100.00;100187.66;109590;1245;73083;-70
2023/04/06 04:16:20;;;;;;;15.90;9.70;;;;;;;-0.63;100.00;100180.30;109583;1245;61024;-71
2023/04/06 04:18:49;;;;;;;21.00;13.20;;;;;;;-0.66;100.00;100184.02;109643;1244;60145;-71
2023/04/06 04:21:18;;;;;;;20.90;12.50;;;;;;;-0.66;100.00;100176.63;109687;1245;70790;-70
2023/04/06 04:23:47;;;;;;;10.20;7.10;;;;;;;-0.69;100.00;100177.25;109598;1245;70228;-71
2023/04/06 04:26:16;;;;;;;17.80;11.20;;;;;;;-0.62;100.00;100185.58;109458;1248;68741;-71
2023/04/06 04:28:45;;;;;;;14.00;9.00;;;;;;;-0.60;100.00;100185.13;109445;1241;74585;-71
2023/04/06 04:31:17;;;;;;;12.70;8.90;;;;;;;-0.60;100.00;100178.66;109587;1246;60881;-72
2023/04/06 04:33:47;;;;;;;15.80;9.90;;;;;;;-0.60;100.00;100181.22;109605;1241;59075;-72
2023/04/06 04:36:19;;;;;;;21.50;11.80;;;;;;;-0.63;100.00;100186.46;109634;1241;72540;-74
2023/04/06 04:38:48;;;;;;;19.90;12.20;;;;;;;-0.60;100.00;100186.52;109530;1241;70924;-73
2023/04/06 04:41:17;;;;;;;17.30;12.80;;;;;;;-0.60;100.00;100190.64;109585;1241;70793;-72
2023/04/06 04:43:47;;;;;;;16.20;9.50;;;;;;;-0.58;100.00;100183.36;109330;1241;73186;-70
2023/04/06 04:46:16;;;;;;;9.30;6.80;;;;;;;-0.53;100.00;100191.93;109457;1247;62140;-72
2023/04/06 04:48:45;;;;;;;13.00;9.50;;;;;;;-0.52;100.00;100195.30;109662;1241;60343;-73
2023/04/06 04:51:15;;;;;;;18.10;10.10;;;;;;;-0.53;100.00;100197.39;109543;1241;74086;-70
2023/04/06 04:54:37;;;;;;;16.80;10.10;;;;;;;-0.56;100.00;100188.27;109470;1241;72081;-70
2023/04/06 04:57:07;;;;;;;10.40;7.20;;;;;;;-0.49;100.00;100186.67;109519;1241;70073;-70
2023/04/06 04:59:40;;;;;;;8.60;6.70;;;;;;;-0.52;100.00;100186.57;109577;1245;72385;-70
2023/04/06 05:02:15;;;;;;;10.20;7.60;;;;;;;-0.58;100.00;100177.55;109540;1245;60470;-71
2023/04/06 05:04:52;;;;;;;17.00;9.80;;;;;;;-0.54;100.00;100177.23;109582;1241;59601;-71
2023/04/06 05:07:24;;;;;;;15.20;9.50;;;;;;;-0.53;100.00;100172.94;109576;1242;74007;-71
2023/04/06 05:09:53;;;;;;;17.60;11.20;;;;;;;-0.57;100.00;100174.09;109490;1241;72533;-82
2023/04/06 05:12:22;;;;;;;13.80;9.50;;;;;;;-0.52;100.00;100172.71;109572;1241;69417;-72
2023/04/06 05:15:00;;;;;;;16.90;10.40;;;;;;;-0.50;100.00;100183.27;109575;1241;73799;-70
2023/04/06 05:17:29;;;;;;;16.90;11.00;;;;;;;-0.53;100.00;100177.56;109394;1247;61033;-70
2023/04/06 05:19:58;;;;;;;13.10;8.80;;;;;;;-0.51;100.00;100176.63;109578;1243;60300;-70
2023/04/06 05:22:28;;;;;;;13.90;9.80;;;;;;;-0.45;100.00;100171.27;109552;1241;73122;-71
2023/04/06 05:25:32;;;;;;;14.40;9.00;;;;;;;-0.46;100.00;100171.66;109449;1241;71537;-71
2023/04/06 05:28:05;;;;;;;13.10;9.90;;;;;;;-0.38;100.00;100171.05;109366;1241;70370;-68
2023/04/06 05:30:36;;;;;;;19.50;11.80;;;;;;;-0.39;100.00;100163.01;109437;1245;72649;-70
2023/04/06 05:33:05;;;;;;;21.10;12.30;;;;;;;-0.46;100.00;100162.41;109248;1246;60158;-69
2023/04/06 05:35:45;;;;;;;17.30;11.60;;;;;;;-0.48;100.00;100156.68;109335;1244;59774;-73
2023/04/06 05:38:14;;;;;;;12.90;8.80;;;;;;;-0.43;100.00;100163.02;109449;1242;72251;-72
2023/04/06 05:40:43;;;;;;;16.70;11.80;;;;;;;-0.41;100.00;100168.23;109417;1248;70261;-70
2023/04/06 05:43:14;;;;;;;16.60;10.50;;;;;;;-0.45;100.00;100167.02;109540;1242;68369;-72
2023/04/06 05:45:45;;;;;;;15.50;9.50;;;;;;;-0.41;100.00;100160.37;109487;1241;71833;-72
2023/04/06 05:48:14;;;;;;;15.30;10.50;;;;;;;-0.35;100.00;100158.61;109520;1246;60324;-72
2023/04/06 05:50:47;;;;;;;17.90;11.00;;;;;;;-0.40;100.00;100155.20;109537;1242;59572;-71
2023/04/06 05:53:16;;;;;;;10.80;8.00;;;;;;;-0.38;100.00;100174.63;109535;1241;73036;-71
2023/04/06 05:55:51;;;;;;;12.30;7.70;;;;;;;-0.40;100.00;100150.21;109403;1248;69872;-69
2023/04/06 05:58:21;;;;;;;11.60;8.50;;;;;;;-0.30;100.00;100161.33;109294;1241;383759;-69
2023/04/06 06:00:57;;;;;;;8.70;6.20;;;;;;;-0.25;100.00;100166.27;109553;1245;72145;-70
2023/04/06 06:03:26;;;;;;;15.10;9.90;;;;;;;-0.30;100.00;100156.71;109430;1245;61375;-70
2023/04/06 06:06:03;;;;;;;14.10;10.30;;;;;;;-0.28;100.00;100141.39;109557;1241;61427;-70
2023/04/06 06:08:44;;;;;;;15.20;8.70;;;;;;;-0.25;100.00;100145.60;109392;1245;73539;-71
2023/04/06 06:11:15;;;;;;;21.40;9.70;;;;;;;-0.23;100.00;100133.86;109503;1241;72634;-72
2023/04/06 06:13:44;;;;;;;14.30;10.40;;;;;;;-0.25;100.00;100137.52;109495;1241;70813;-73
2023/04/06 06:16:12;;;;;;;14.30;10.00;;;;;;;-0.25;100.00;100128.96;109520;1241;74196;-71
2023/04/06 06:18:45;;;;;;;15.00;11.70;;;;;;;-0.26;100.00;100105.73;109551;1245;62481;-74
2023/04/06 06:21:14;;;;;;;10.60;7.90;;;;;;;-0.13;100.00;100128.88;109286;1241;59941;-70
2023/04/06 06:23:43;;;;;;;11.80;8.20;;;;;;;-0.15;100.00;100122.80;109209;1247;71339;-72
2023/04/06 06:26:16;;;;;;;14.40;10.00;;;;;;;-0.20;100.00;100129.98;109298;1241;71515;-73
2023/04/06 06:28:45;;;;;;;16.40;10.30;;;;;;;-0.22;100.00;100130.56;109488;1245;68896;-73
2023/04/06 06:31:14;;;;;;;13.00;8.90;;;;;;;-0.20;100.00;100126.55;109516;1245;71994;-71
2023/04/06 06:33:43;;;;;;;20.40;11.80;;;;;;;-0.18;100.00;100120.69;109481;1247;60873;-70
2023/04/06 06:36:12;;;;;;;16.40;10.80;;;;;;;-0.16;100.00;100130.70;109591;1241;61213;-71
2023/04/06 06:38:41;;;;;;;23.30;14.40;;;;;;;-0.27;100.00;100121.17;109572;1241;72135;-73
2023/04/06 06:41:11;;;;;;;22.10;15.00;;;;;;;-0.20;100.00;100126.56;109582;1246;70270;-71
2023/04/06 06:43:40;;;;;;;22.70;13.50;;;;;;;-0.14;100.00;100132.17;109442;1241;70747;-71
2023/04/06 06:46:10;;;;;;;21.00;11.70;;;;;;;-0.18;100.00;100131.98;109573;1245;71403;-82
2023/04/06 06:48:40;;;;;;;16.30;11.70;;;;;;;-0.12;100.00;100133.64;109565;1244;61227;-71
2023/04/06 06:51:11;;;;;;;14.00;10.10;;;;;;;-0.16;100.00;100126.95;109371;1244;59606;-71
2023/04/06 06:53:41;;;;;;;23.60;14.20;;;;;;;-0.13;100.00;100130.95;109458;1241;72177;-69
2023/04/06 06:56:10;;;;;;;18.70;12.70;;;;;;;-0.10;100.00;100134.92;109411;1241;71706;-77
2023/04/06 06:58:39;;;;;;;21.40;13.10;;;;;;;-0.11;100.00;100126.07;109319;1245;67207;-71
2023/04/06 07:01:08;;;;;;;23.30;14.00;;;;;;;-0.05;100.00;100125.66;109455;1244;71989;-70
2023/04/06 07:03:37;;;;;;;16.30;10.50;;;;;;;-0.01;100.00;100135.25;109433;1245;59677;-70
2023/04/06 07:06:06;;;;;;;15.30;10.00;;;;;;;-0.06;100.00;100126.03;109286;1242;59647;-74
2023/04/06 07:08:35;;;;;;;13.60;9.20;;;;;;;-0.04;100.00;100129.03;109560;1244;71073;-72
2023/04/06 07:11:04;;;;;;;19.60;13.40;;;;;;;-0.03;100.00;100127.46;109421;1241;71315;-72
2023/04/06 07:13:33;;;;;;;19.40;12.60;;;;;;;0.03;100.00;100131.87;109328;1241;67626;-72
2023/04/06 07:16:02;;;;;;;19.30;11.00;;;;;;;0.07;100.00;100126.56;109416;1241;71889;-71
2023/04/06 07:18:31;;;;;;;13.60;10.10;;;;;;;0.09;100.00;100141.22;109500;1241;61989;-71
2023/04/06 07:21:04;;;;;;;21.30;13.70;;;;;;;0.06;100.00;100132.63;109468;1243;61596;-71
2023/04/06 07:23:33;;;;;;;17.00;11.20;;;;;;;0.08;100.00;100135.95;109477;1241;72425;-71
2023/04/06 07:26:02;;;;;;;19.70;12.60;;;;;;;0.11;100.00;100140.80;109530;1241;70290;-72
2023/04/06 07:28:31;;;;;;;26.40;15.00;;;;;;;0.12;100.00;100134.94;109580;1241;70921;-71
2023/04/06 07:31:01;;;;;;;19.60;13.00;;;;;;;0.12;100.00;100138.20;109633;1241;74223;-72
2023/04/06 07:33:30;;;;;;;14.70;9.50;;;;;;;0.21;100.00;100141.59;109504;1245;62412;-78
2023/04/06 07:35:59;;;;;;;30.00;17.20;;;;;;;0.23;100.00;100140.16;109690;1242;59277;-72
2023/04/06 07:38:28;;;;;;;21.80;14.50;;;;;;;0.28;100.00;100138.63;109682;1241;72129;-73
2023/04/06 07:40:57;;;;;;;26.00;15.70;;;;;;;0.30;100.00;100145.54;109481;1241;69751;-71
2023/04/06 07:43:26;;;;;;;14.80;9.70;;;;;;;0.28;100.00;100138.42;109702;1241;67754;-75
2023/04/06 07:45:57;;;;;;;18.70;13.40;;;;;;;0.29;100.00;100139.42;109508;1241;71167;-76
2023/04/06 07:48:26;;;;;;;16.20;10.80;;;;;;;0.26;100.00;100140.91;109421;1241;60596;-80
2023/04/06 07:51:03;;;;;;;17.70;12.10;;;;;;;0.31;100.00;100138.50;109516;1242;58737;-81
2023/04/06 07:53:33;;;;;;;13.90;9.10;;;;;;;0.30;100.00;100133.02;109635;1243;73874;-76
2023/04/06 07:56:02;;;;;;;16.50;11.20;;;;;;;0.39;100.00;100133.88;109804;1241;70062;-75
2023/04/06 07:58:31;;;;;;;14.80;10.10;;;;;;;0.41;100.00;100128.83;109722;1244;67638;-74
2023/04/06 08:01:01;;;;;;;15.70;10.80;;;;;;;0.55;100.00;100128.98;109692;1242;71113;-73
2023/04/06 08:03:30;;;;;;;22.80;15.40;;;;;;;0.47;100.00;100134.75;109588;1244;61260;-73
2023/04/06 08:05:59;;;;;;;15.10;11.60;;;;;;;0.50;100.00;100122.99;109589;1241;59769;-74
2023/04/06 08:08:29;;;;;;;7.20;5.70;;;;;;;0.49;100.00;100125.60;109603;1241;72699;-73
2023/04/06 08:10:57;;;;;;;16.30;11.20;;;;;;;0.55;100.00;100126.73;109463;1241;72714;-74
2023/04/06 08:13:30;;;;;;;11.80;8.60;;;;;;;0.58;100.00;100137.59;109634;1241;69613;-74
2023/04/06 08:15:59;;;;;;;14.30;9.80;;;;;;;0.51;100.00;100140.42;109570;1241;73082;-72
2023/04/06 08:18:29;;;;;;;8.50;6.70;;;;;;;0.54;100.00;100133.64;109537;1244;61073;-73
2023/04/06 08:20:58;;;;;;;18.90;12.60;;;;;;;0.56;100.00;100145.20;109655;1241;59623;-74
2023/04/06 08:23:27;;;;;;;25.00;17.80;;;;;;;0.61;100.00;100139.02;109712;1241;72251;-72
2023/04/06 08:25:56;;;;;;;17.20;12.60;;;;;;;0.57;100.00;100143.61;109610;1241;71382;-73
2023/04/06 08:28:25;;;;;;;9.20;7.30;;;;;;;0.61;100.00;100147.38;109708;1242;69969;-77
2023/04/06 08:30:53;;;;;;;24.10;15.30;;;;;;;0.64;100.00;100143.55;109693;1241;74134;-72
2023/04/06 08:33:22;;;;;;;21.00;14.30;;;;;;;0.63;100.00;100144.39;109665;1241;60487;-74
2023/04/06 08:35:51;;;;;;;17.10;13.30;;;;;;;0.71;100.00;100153.15;109663;1241;60314;-71
2023/04/06 08:38:20;;;;;;;14.40;9.50;;;;;;;0.63;100.00;100154.52;109637;1244;71554;-71
2023/04/06 08:40:51;;;;;;;19.40;14.10;;;;;;;0.69;100.00;100163.04;109632;1244;70258;-71
2023/04/06 08:43:23;;;;;;;19.40;12.40;;;;;;;0.69;100.00;100159.77;109617;1241;67815;-71
2023/04/06 08:45:51;;;;;;;23.00;15.30;;;;;;;0.61;100.00;100168.14;109533;1244;73775;-70
2023/04/06 08:48:21;;;;;;;21.10;15.30;;;;;;;0.65;100.00;100168.66;109626;1241;61915;-71
2023/04/06 08:50:50;;;;;;;16.70;11.40;;;;;;;0.69;100.00;100169.87;109511;1241;60361;-72
2023/04/06 08:53:19;;;;;;;17.20;11.80;;;;;;;0.80;100.00;100173.04;109580;1241;73354;-72
2023/04/06 08:55:51;;;;;;;20.90;13.80;;;;;;;0.73;100.00;100173.66;109648;1241;72541;-72
2023/04/06 08:58:22;;;;;;;36.20;20.90;;;;;;;0.78;100.00;100176.55;109607;1244;70818;-71
2023/04/06 09:01:13;;;;;;;24.40;17.10;;;;;;;0.90;100.00;100175.53;109592;1241;74268;-72
2023/04/06 09:03:43;;;;;;;14.00;9.60;;;;;;;0.97;100.00;100181.44;109489;1241;62431;-72
2023/04/06 09:06:13;;;;;;;21.00;16.40;;;;;;;1.01;100.00;100181.44;109439;1241;60196;-72
2023/04/06 09:08:42;;;;;;;16.90;12.80;;;;;;;0.97;100.00;100176.44;109347;1241;71592;-72
2023/04/06 09:11:11;;;;;;;25.30;17.40;;;;;;;1.08;100.00;100178.21;109548;1241;70304;-72
2023/04/06 09:13:52;;;;;;;29.10;18.50;;;;;;;1.05;100.00;100163.75;109576;1241;68650;-72
2023/04/06 09:16:22;;;;;;;22.20;14.70;;;;;;;1.17;100.00;100173.73;109525;1241;73171;-71
2023/04/06 09:18:51;;;;;;;22.30;14.40;;;;;;;1.19;100.00;100182.56;109406;1244;62843;-70
2023/04/06 09:21:20;;;;;;;19.40;13.90;;;;;;;1.22;100.00;100180.20;109603;1241;60179;-71
2023/04/06 09:24:01;;;;;;;18.10;11.70;;;;;;;1.25;100.00;100179.92;109469;1244;71811;-71
2023/04/06 09:26:33;;;;;;;20.70;14.00;;;;;;;1.11;100.00;100182.55;109142;1241;69340;-72
2023/04/06 09:29:03;;;;;;;27.50;17.10;;;;;;;1.25;100.00;100179.37;109503;1241;68704;-79
2023/04/06 09:31:35;;;;;;;33.70;20.70;;;;;;;1.20;100.00;100172.59;109488;1241;73009;-74
2023/04/06 09:34:04;;;;;;;33.00;19.30;;;;;;;1.19;100.00;100180.15;109232;1242;61188;-71
2023/04/06 09:36:41;;;;;;;23.20;15.80;;;;;;;1.32;100.00;100179.92;109481;1241;62055;-73
2023/04/06 09:39:10;;;;;;;24.20;14.70;;;;;;;1.32;100.00;100188.01;109345;1241;71466;-72
2023/04/06 09:41:39;;;;;;;24.80;15.70;;;;;;;1.34;100.00;100191.88;109426;1241;70428;-73
2023/04/06 09:44:10;;;;;;;28.00;17.60;;;;;;;1.30;100.00;100192.39;109429;1241;68021;-72
2023/04/06 09:46:45;;;;;;;34.10;19.60;;;;;;;1.31;100.00;100192.34;109490;1241;74375;-74
2023/04/06 09:49:31;;;;;;;30.00;17.70;;;;;;;1.29;100.00;100194.30;109400;1241;60201;-72
2023/04/06 09:52:03;;;;;;;29.60;18.20;;;;;;;1.28;100.00;100192.48;109601;1241;61054;-76
2023/04/06 09:54:32;;;;;;;22.20;12.70;;;;;;;1.26;100.00;100194.45;109430;1241;73290;-76
2023/04/06 09:57:22;;;;;;;12.40;9.30;;;;;;;1.41;100.00;100197.58;109578;1241;71540;-75
2023/04/06 10:00:09;;;;;;;15.00;9.50;;;;;;;1.36;100.00;100202.95;109540;1243;68959;-74
2023/04/06 10:03:03;;;;;;;23.10;14.40;;;;;;;1.27;100.00;100196.44;109697;1241;72927;-74
2023/04/06 10:05:46;;;;;;;20.70;13.00;;;;;;;1.34;100.00;100211.11;109645;1241;60859;-75
2023/04/06 10:08:17;;;;;;;37.90;20.90;;;;;;;1.27;100.00;100210.73;109253;1244;61157;-75
2023/04/06 10:10:47;;;;;;;18.40;11.40;;;;;;;1.39;100.00;100211.58;109258;1243;74771;-77
2023/04/06 10:13:16;;;;;;;22.40;14.00;;;;;;;1.38;100.00;100214.34;109273;1241;71786;-74
2023/04/06 10:15:45;;;;;;;27.30;17.50;;;;;;;1.27;100.00;100212.60;109500;1241;70231;-74
2023/04/06 10:18:15;;;;;;;33.20;19.40;;;;;;;1.28;100.00;100213.56;109378;1244;71761;-75
2023/04/06 10:20:51;;;;;;;32.30;18.80;;;;;;;1.37;100.00;100218.86;109421;1243;60161;-75
2023/04/06 10:23:54;;;;;;;21.80;14.80;;;;;;;1.52;100.00;100222.70;109345;1241;59725;-74
2023/04/06 10:26:23;;;;;;;18.70;12.10;;;;;;;1.54;100.00;100221.06;109132;1241;73552;-76
2023/04/06 10:28:52;;;;;;;22.30;13.80;;;;;;;1.53;100.00;100222.81;109350;1241;72580;-75
2023/04/06 10:31:27;;;;;;;29.80;19.40;;;;;;;1.42;100.00;100223.96;109354;1241;68762;-77
2023/04/06 10:33:56;;;;;;;33.20;21.00;;;;;;;1.41;100.00;100226.59;109070;1241;73042;-76
2023/04/06 10:36:33;;;;;;;32.10;19.30;;;;;;;1.40;100.00;100226.11;109357;1242;60345;-76
2023/04/06 10:39:06;;;;;;;19.70;13.20;;;;;;;1.49;100.00;100230.20;109202;1241;59685;-73
2023/04/06 10:41:46;;;;;;;25.70;16.20;;;;;;;1.54;100.00;100229.30;109335;1244;71013;-76
2023/04/06 10:44:21;;;;;;;47.10;26.60;;;;;;;1.51;100.00;100229.43;109340;1241;71524;-76
2023/04/06 10:47:01;;;;;;;51.10;26.00;;;;;;;1.50;100.00;100231.01;109450;1241;69164;-76
2023/04/06 10:49:30;;;;;;;66.50;32.40;;;;;;;1.54;100.00;100231.01;109274;1241;71757;-75
2023/04/06 10:51:59;;;;;;;65.30;31.40;;;;;;;1.66;100.00;100233.05;109246;1241;60014;-75
2023/04/06 10:54:28;;;;;;;64.20;32.90;;;;;;;1.81;100.00;100227.98;109339;1242;58874;-77
2023/04/06 10:56:58;;;;;;;67.60;33.60;;;;;;;1.74;100.00;100228.43;109318;1241;73551;-76
2023/04/06 10:59:28;;;;;;;56.70;29.40;;;;;;;1.80;100.00;100225.09;109649;1241;72593;-76
2023/04/06 11:01:57;;;;;;;63.40;29.50;;;;;;;1.91;100.00;100226.15;109455;1241;70405;-76
2023/04/06 11:04:26;;;;;;;63.80;32.30;;;;;;;1.91;100.00;100228.88;109654;1241;72904;-77
2023/04/06 11:06:55;;;;;;;68.70;32.30;;;;;;;1.89;100.00;100230.16;109421;1244;61078;-76
2023/04/06 11:09:29;;;;;;;49.20;26.60;;;;;;;2.19;100.00;100231.07;109527;1244;58850;-76
2023/04/06 11:11:58;;;;;;;38.50;23.80;;;;;;;2.10;100.00;100236.12;109575;1242;72179;-77
2023/04/06 11:14:27;;;;;;;33.10;21.80;;;;;;;2.00;100.00;100241.38;109591;1241;74159;-78
2023/04/06 11:16:56;;;;;;;34.90;21.10;;;;;;;1.83;100.00;100238.83;109452;1241;70057;-78
2023/04/06 11:19:25;;;;;;;56.60;31.80;;;;;;;1.68;100.00;100240.88;109398;1241;74575;-77
2023/04/06 11:21:54;;;;;;;68.30;34.70;;;;;;;1.61;100.00;100240.34;109308;1241;61705;-78